createdAt,value
2022-10-18T03:44:46.219Z,7.43
2022-10-18T03:47:49.144Z,7.43
2022-10-18T03:50:51.678Z,6.96
2022-10-18T03:53:54.462Z,6.93
2022-10-18T03:56:56.972Z,6.92
2022-10-18T03:59:59.751Z,6.92
2022-10-18T04:03:03.249Z,6.90
2022-10-18T04:06:07.874Z,6.93
2022-10-18T04:09:10.638Z,6.97
2022-10-18T04:12:13.494Z,6.96
2022-10-18T04:15:16.111Z,6.95
2022-10-18T04:18:18.928Z,7.00
2022-10-18T04:21:21.491Z,7.02
2022-10-18T04:24:24.520Z,7.03
2022-10-18T04:27:27.040Z,7.02
2022-10-18T04:30:30.019Z,7.00
2022-10-18T04:33:32.721Z,6.98
2022-10-18T04:36:35.563Z,6.98
2022-10-18T04:39:38.144Z,6.95
2022-10-18T04:42:40.866Z,6.97
2022-10-18T04:45:45.725Z,6.98
2022-10-18T04:48:48.580Z,6.96
2022-10-18T04:51:51.034Z,6.99
2022-10-18T04:54:53.724Z,6.96
2022-10-18T04:57:56.288Z,6.95
2022-10-18T05:00:59.795Z,7.03
2022-10-18T05:04:02.288Z,7.02
2022-10-18T05:07:06.631Z,7.04
2022-10-18T05:10:10.114Z,7.09
2022-10-18T05:13:13.139Z,7.11
2022-10-18T05:16:16.151Z,7.13
2022-10-18T05:19:18.964Z,7.16
2022-10-18T05:22:21.471Z,7.20
2022-10-18T05:25:24.900Z,7.26
2022-10-18T05:28:39.648Z,7.32
2022-10-18T05:31:43.124Z,7.37
2022-10-18T05:34:46.285Z,7.43
2022-10-18T05:37:49.087Z,7.44
2022-10-18T05:40:54.402Z,7.42
2022-10-18T05:43:57.236Z,7.45
2022-10-18T05:46:59.675Z,7.52
2022-10-18T05:50:02.725Z,7.53
2022-10-18T05:53:12.537Z,7.66
2022-10-18T05:56:21.212Z,7.68
2022-10-18T05:59:24.011Z,7.87
2022-10-18T06:02:26.776Z,8.08
2022-10-18T06:05:29.601Z,8.25
2022-10-18T06:08:32.627Z,8.42
2022-10-18T06:11:35.912Z,8.57
2022-10-18T06:14:38.370Z,8.71
2022-10-18T06:17:41.213Z,8.89
2022-10-18T06:20:44.739Z,9.04
2022-10-18T06:23:57.594Z,9.27
2022-10-18T06:27:00.140Z,9.51
2022-10-18T06:30:03.856Z,9.70
2022-10-18T06:33:06.471Z,9.92
2022-10-18T06:36:22.120Z,10.12
2022-10-18T06:39:26.183Z,10.33
2022-10-18T06:42:29.057Z,10.52
2022-10-18T06:45:31.552Z,10.72
2022-10-18T06:48:36.247Z,10.82
2022-10-18T06:51:39.125Z,10.95
2022-10-18T06:54:42.090Z,11.17
2022-10-18T06:57:46.339Z,11.29
2022-10-18T07:00:49.060Z,11.50
2022-10-18T07:03:53.657Z,11.67
2022-10-18T07:06:56.771Z,11.78
2022-10-18T07:10:01.489Z,12.00
2022-10-18T07:13:27.428Z,12.17
2022-10-18T07:16:26.766Z,12.35
2022-10-18T07:19:29.462Z,12.53
2022-10-18T07:22:31.884Z,12.77
2022-10-18T07:25:35.458Z,13.11
2022-10-18T07:28:38.721Z,13.30
2022-10-18T07:31:41.813Z,13.39
2022-10-18T07:34:44.303Z,13.48
2022-10-18T07:37:47.153Z,13.60
2022-10-18T07:40:57.499Z,13.76
2022-10-18T07:44:01.576Z,14.06
2022-10-18T07:47:04.060Z,14.74
2022-10-18T07:50:07.431Z,15.25
2022-10-18T07:53:10.524Z,15.14
2022-10-18T07:56:16.505Z,14.87
2022-10-18T07:59:19.136Z,14.73
2022-10-18T08:02:24.814Z,14.72
2022-10-18T08:05:28.889Z,14.66
2022-10-18T08:08:31.855Z,14.68
2022-10-18T08:11:34.787Z,14.75
2022-10-18T08:14:37.419Z,15.03
2022-10-18T08:17:40.189Z,15.29
2022-10-18T08:20:44.988Z,15.24
2022-10-18T08:23:48.997Z,15.22
2022-10-18T08:26:51.509Z,15.35
2022-10-18T08:29:54.332Z,15.47
2022-10-18T08:32:56.893Z,15.61
2022-10-18T08:36:01.380Z,15.72
2022-10-18T08:39:04.042Z,15.71
2022-10-18T08:42:42.715Z,15.84
2022-10-18T08:45:45.542Z,15.96
2022-10-18T08:48:50.921Z,16.29
2022-10-18T08:51:53.768Z,16.55
2022-10-18T08:55:10.316Z,16.51
2022-10-18T08:58:24.863Z,16.47
2022-10-18T09:01:36.656Z,16.58
2022-10-18T09:05:14.395Z,16.58
2022-10-18T09:08:27.782Z,16.74
2022-10-18T09:11:47.322Z,16.99
2022-10-18T09:15:18.129Z,17.12
2022-10-18T09:18:42.301Z,17.09
2022-10-18T09:21:53.672Z,17.20
2022-10-18T09:25:15.180Z,17.31
2022-10-18T09:28:26.992Z,17.43
2022-10-18T09:31:52.759Z,17.54
2022-10-18T09:35:01.018Z,17.52
2022-10-18T09:38:09.366Z,17.61
2022-10-18T09:41:34.631Z,17.75
2022-10-18T09:44:41.955Z,17.82
2022-10-18T09:47:51.159Z,17.96
2022-10-18T09:50:59.301Z,18.06
2022-10-18T09:54:19.195Z,18.13
2022-10-18T09:57:31.467Z,18.20
2022-10-18T10:00:43.424Z,18.32
2022-10-18T10:03:46.399Z,18.32
2022-10-18T10:06:50.458Z,18.41
2022-10-18T10:09:59.611Z,18.43
2022-10-18T10:13:14.370Z,18.53
2022-10-18T10:16:17.854Z,18.56
2022-10-18T10:19:23.069Z,18.70
2022-10-18T10:22:47.751Z,18.88
2022-10-18T10:25:56.675Z,18.88
2022-10-18T10:28:59.898Z,19.00
2022-10-18T10:32:03.958Z,19.12
2022-10-18T10:35:41.406Z,19.16
2022-10-18T10:39:18.375Z,19.34
2022-10-18T10:42:21.220Z,19.34
2022-10-18T10:45:25.944Z,19.32
2022-10-18T10:48:33.720Z,19.43
2022-10-18T10:51:39.361Z,19.41
2022-10-18T10:54:50.327Z,19.44
2022-10-18T10:57:56.460Z,19.53
2022-10-18T11:01:19.126Z,19.63
2022-10-18T11:04:30.425Z,19.62
2022-10-18T11:07:46.628Z,19.59
2022-10-18T11:11:02.888Z,19.82
2022-10-18T11:14:29.548Z,19.76
2022-10-18T11:17:44.067Z,19.88
2022-10-18T11:20:56.120Z,19.79
2022-10-18T11:24:00.117Z,19.88
2022-10-18T11:27:18.043Z,19.92
2022-10-18T11:30:55.463Z,20.06
2022-10-18T11:34:43.653Z,20.19
2022-10-18T11:37:57.351Z,20.08
2022-10-18T11:41:39.923Z,20.05
2022-10-18T11:45:00.427Z,20.19
2022-10-18T11:48:40.039Z,20.38
2022-10-18T11:52:09.952Z,20.41
2022-10-18T11:55:19.793Z,20.45
2022-10-18T11:59:00.328Z,20.38
2022-10-18T12:02:21.628Z,20.40
2022-10-18T12:05:25.255Z,20.57
2022-10-18T12:08:49.977Z,20.63
2022-10-18T12:11:58.443Z,20.69
2022-10-18T12:15:13.580Z,20.68
2022-10-18T12:18:21.614Z,20.73
2022-10-18T12:21:26.656Z,20.70
2022-10-18T12:24:31.999Z,20.68
2022-10-18T12:27:40.912Z,20.78
2022-10-18T12:31:18.682Z,20.99
2022-10-18T12:34:21.142Z,21.11
2022-10-18T12:38:05.678Z,21.24
2022-10-18T12:41:20.599Z,21.47
2022-10-18T12:44:33.185Z,21.65
2022-10-18T12:47:36.713Z,21.89
2022-10-18T12:50:43.150Z,22.05
2022-10-18T12:53:49.189Z,22.28
2022-10-18T12:56:52.441Z,22.63
2022-10-18T12:59:55.175Z,22.96
2022-10-18T13:03:27.412Z,23.38
2022-10-18T13:06:59.312Z,24.19
2022-10-18T13:10:12.360Z,25.81
2022-10-18T13:13:39.200Z,28.19
2022-10-18T13:17:06.950Z,31.26
2022-10-18T13:20:38.892Z,35.17
2022-10-18T13:23:53.677Z,38.36
2022-10-18T13:27:35.519Z,40.81
2022-10-18T13:30:55.518Z,41.55
2022-10-18T13:34:20.681Z,42.78
2022-10-18T13:37:25.750Z,43.68
2022-10-18T13:40:32.476Z,43.91
2022-10-18T13:43:54.114Z,44.34
2022-10-18T13:46:56.396Z,44.26
2022-10-18T13:50:17.115Z,43.95
2022-10-18T13:53:22.628Z,44.47
2022-10-18T13:57:03.065Z,43.83
2022-10-18T14:00:37.855Z,44.36
2022-10-18T14:04:21.884Z,44.62
2022-10-18T14:07:27.043Z,45.32
2022-10-18T14:11:07.965Z,44.67
2022-10-18T14:14:41.572Z,44.54
2022-10-18T14:17:47.980Z,43.71
2022-10-18T14:21:12.711Z,43.72
2022-10-18T14:24:23.344Z,42.79
2022-10-18T14:27:28.709Z,38.84
2022-10-18T14:30:33.174Z,34.97
2022-10-18T14:33:39.051Z,31.78
2022-10-18T14:36:45.904Z,29.23
2022-10-18T14:39:48.404Z,27.28
2022-10-18T14:42:51.220Z,25.86
2022-10-18T14:45:53.838Z,24.55
2022-10-18T14:49:04.293Z,23.52
2022-10-18T14:52:13.862Z,22.72
2022-10-18T14:55:32.547Z,22.03
2022-10-18T14:58:37.865Z,21.63
2022-10-18T15:02:10.822Z,21.17
2022-10-18T15:05:16.304Z,20.76
2022-10-18T15:08:19.998Z,20.39
2022-10-18T15:11:24.444Z,19.98
2022-10-18T15:14:28.786Z,19.76
2022-10-18T15:17:34.142Z,19.54
2022-10-18T15:20:42.616Z,19.40
2022-10-18T15:23:45.226Z,19.13
2022-10-18T15:26:50.243Z,18.84
2022-10-18T15:29:52.906Z,18.56
2022-10-18T15:32:58.807Z,18.30
